createdAt,value
2022-07-29T16:37:39.634Z,101183.34
2022-07-29T16:42:47.204Z,101171.00
2022-07-29T16:47:49.811Z,101165.56
2022-07-29T16:52:52.222Z,101168.38
2022-07-29T16:57:54.479Z,101171.94
2022-07-29T17:02:56.818Z,101164.31
2022-07-29T17:07:59.184Z,101162.75
2022-07-29T17:13:01.614Z,101163.91
2022-07-29T17:18:12.822Z,101156.19
2022-07-29T17:23:15.244Z,101157.97
2022-07-29T17:28:17.541Z,101161.50
2022-07-29T17:33:19.898Z,101159.78
2022-07-29T17:38:22.261Z,101158.91
2022-07-29T17:43:24.530Z,101155.44
2022-07-29T17:48:27.138Z,101156.31
2022-07-29T17:53:29.599Z,101164.13
2022-07-29T17:58:32.461Z,101172.88
2022-07-29T18:03:34.755Z,101168.44
2022-07-29T18:08:39.852Z,101164.00
2022-07-29T18:13:42.238Z,101170.94
2022-07-29T18:18:45.108Z,101176.97
2022-07-29T18:23:50.762Z,101173.38
2022-07-29T18:28:53.428Z,101179.44
2022-07-29T18:33:59.716Z,101188.09
2022-07-29T18:39:02.469Z,101186.16
2022-07-29T18:44:05.243Z,101185.09
2022-07-29T18:49:08.155Z,101180.63
2022-07-29T18:54:10.612Z,101188.44
2022-07-29T18:59:17.027Z,101194.34
2022-07-29T19:04:19.406Z,101188.97
2022-07-29T19:09:21.683Z,101192.31
2022-07-29T19:14:23.952Z,101206.94
2022-07-29T19:19:26.230Z,101205.94
2022-07-29T19:24:29.312Z,101200.53
2022-07-29T19:29:33.054Z,101216.09
2022-07-29T19:34:35.659Z,101221.22
2022-07-29T19:39:37.980Z,101230.63
2022-07-29T19:44:40.254Z,101224.38
2022-07-29T19:49:42.534Z,101226.03
2022-07-29T19:54:44.788Z,101227.53
2022-07-29T19:59:47.087Z,101229.19
2022-07-29T20:04:49.452Z,101244.69
2022-07-29T20:09:54.827Z,101236.69
2022-07-29T20:14:57.849Z,101233.94
2022-07-29T20:20:01.085Z,101236.41
2022-07-29T20:25:05.060Z,101233.53
2022-07-29T20:30:08.032Z,101234.97
2022-07-29T20:35:12.094Z,101232.09
2022-07-29T20:40:14.401Z,101237.13
2022-07-29T20:45:16.787Z,101234.22
2022-07-29T20:50:23.949Z,101239.31
2022-07-29T20:55:27.004Z,101238.28
2022-07-29T21:00:29.337Z,101240.59
2022-07-29T21:05:31.839Z,101242.28
2022-07-29T21:10:34.164Z,101241.22
2022-07-29T21:15:36.650Z,101240.06
2022-07-29T21:20:38.984Z,101240.75
2022-07-29T21:25:41.261Z,101243.91
2022-07-29T21:30:43.569Z,101253.34
2022-07-29T21:36:14.913Z,101245.47
2022-07-29T21:41:08.408Z,101246.94
